Here is the Quick Look data you requested

The Data originates at the National Weather Service, and is made available here by the UAlbany Department of Atmospheric and Environmental Sciences

Surface Observations

K1V4 180254Z AUTO 18/14 A2999 RMK AO1 SLP144 T01830144 53004 $=
KBTV 180254Z 19009KT 10SM CLR 26/08 A2995 RMK AO2 SLP138 T02560078 58005=
KDDH 180254Z AUTO VRB04KT 10SM CLR 20/12 A3002 RMK AO2 SLP160 T02000122 57006=
KEFK 180255Z AUTO 00000KT 10SM CLR 21/10 A2998 RMK AO2 T02060098=
KMPV 180251Z AUTO 00000KT 10SM CLR 18/09 A3004 RMK AO2 SLP169 T01830094 56002=
KMVL 180254Z AUTO 00000KT 10SM CLR 16/14 A2998 RMK AO2 SLP150 T01610144 58003=
KRUT 180256Z AUTO 13010KT 10SM CLR 18/12 A3002 RMK AO2 SLP178 T01780117 56002 $=
KVSF 180254Z AUTO 34003KT 10SM CLR 16/12 A3002 RMK AO2 SLP164 T01610117 50000=